sensor_id;sensor_type;location;lat;lon;timestamp;noise_LAeq;noise_LA_min;noise_LA_max;noise_LA01;noise_LA95
43787;Laerm;29409;49.306;8.500;2022-07-09T00:00:16;41.38;37.12;46.76;;
43787;Laerm;29409;49.306;8.500;2022-07-09T00:01:54;40.34;36.91;42.88;;
43787;Laerm;29409;49.306;8.500;2022-07-09T00:03:32;41.74;37.32;50.85;;
43787;Laerm;29409;49.306;8.500;2022-07-09T00:05:10;41.20;37.52;44.54;;
43787;Laerm;29409;49.306;8.500;2022-07-09T00:06:49;40.58;37.70;42.65;;
43787;Laerm;29409;49.306;8.500;2022-07-09T00:08:27;40.66;36.98;45.83;;
43787;Laerm;29409;49.306;8.500;2022-07-09T00:10:06;40.95;37.32;47.65;;
43787;Laerm;29409;49.306;8.500;2022-07-09T00:11:44;40.06;36.91;42.22;;
43787;Laerm;29409;49.306;8.500;2022-07-09T00:13:21;43.13;37.52;74.00;;
43787;Laerm;29409;49.306;8.500;2022-07-09T00:14:59;40.09;37.32;42.09;;
43787;Laerm;29409;49.306;8.500;2022-07-09T00:16:38;40.18;36.91;42.35;;
43787;Laerm;29409;49.306;8.500;2022-07-09T00:18:16;40.18;37.32;42.71;;
43787;Laerm;29409;49.306;8.500;2022-07-09T00:19:54;40.45;36.45;44.03;;
43787;Laerm;29409;49.306;8.500;2022-07-09T00:21:32;39.95;36.77;43.34;;
43787;Laerm;29409;49.306;8.500;2022-07-09T00:23:10;39.94;37.12;42.41;;
43787;Laerm;29409;49.306;8.500;2022-07-09T00:24:48;40.35;36.91;45.48;;
43787;Laerm;29409;49.306;8.500;2022-07-09T00:26:26;39.92;35.94;42.16;;
43787;Laerm;29409;49.306;8.500;2022-07-09T00:28:05;40.56;36.45;46.05;;
43787;Laerm;29409;49.306;8.500;2022-07-09T00:29:43;39.90;34.31;42.47;;
43787;Laerm;29409;49.306;8.500;2022-07-09T00:31:21;40.22;36.91;42.41;;
43787;Laerm;29409;49.306;8.500;2022-07-09T00:32:59;40.35;36.91;43.81;;
43787;Laerm;29409;49.306;8.500;2022-07-09T00:34:37;40.59;37.12;45.63;;
43787;Laerm;29409;49.306;8.500;2022-07-09T00:36:14;40.30;35.36;44.73;;
43787;Laerm;29409;49.306;8.500;2022-07-09T00:37:52;40.12;36.77;43.00;;
43787;Laerm;29409;49.306;8.500;2022-07-09T00:39:30;39.65;35.66;43.09;;
43787;Laerm;29409;49.306;8.500;2022-07-09T00:41:08;40.13;37.12;43.19;;
43787;Laerm;29409;49.306;8.500;2022-07-09T00:42:46;40.97;37.52;45.07;;
43787;Laerm;29409;49.306;8.500;2022-07-09T00:44:24;40.39;35.66;42.76;;
43787;Laerm;29409;49.306;8.500;2022-07-09T00:46:02;40.23;37.12;43.86;;
43787;Laerm;29409;49.306;8.500;2022-07-09T00:47:40;41.71;37.32;49.16;;
43787;Laerm;29409;49.306;8.500;2022-07-09T00:49:18;39.83;36.20;42.35;;
43787;Laerm;29409;49.306;8.500;2022-07-09T00:50:56;40.89;36.45;44.51;;
43787;Laerm;29409;49.306;8.500;2022-07-09T00:52:34;41.19;36.91;45.80;;
43787;Laerm;29409;49.306;8.500;2022-07-09T00:54:13;40.58;37.32;47.20;;
43787;Laerm;29409;49.306;8.500;2022-07-09T00:55:51;40.19;35.94;42.59;;
43787;Laerm;29409;49.306;8.500;2022-07-09T00:57:30;40.26;35.94;44.73;;
43787;Laerm;29409;49.306;8.500;2022-07-09T00:59:08;39.82;35.94;42.03;;
43787;Laerm;29409;49.306;8.500;2022-07-09T01:00:50;40.25;37.12;43.34;;
43787;Laerm;29409;49.306;8.500;2022-07-09T01:02:28;40.73;37.70;42.98;;
43787;Laerm;29409;49.306;8.500;2022-07-09T01:04:06;40.44;37.52;43.39;;
43787;Laerm;29409;49.306;8.500;2022-07-09T01:05:44;40.39;37.32;42.93;;
43787;Laerm;29409;49.306;8.500;2022-07-09T01:07:22;40.58;36.20;42.71;;
43787;Laerm;29409;49.306;8.500;2022-07-09T01:09:01;41.34;37.53;45.30;;
43787;Laerm;29409;49.306;8.500;2022-07-09T01:10:39;40.75;37.52;47.16;;
43787;Laerm;29409;49.306;8.500;2022-07-09T01:12:17;40.17;36.69;42.76;;
43787;Laerm;29409;49.306;8.500;2022-07-09T01:13:55;39.93;34.31;42.65;;
43787;Laerm;29409;49.306;8.500;2022-07-09T01:15:33;40.03;36.69;42.47;;
43787;Laerm;29409;49.306;8.500;2022-07-09T01:17:11;40.81;37.32;43.44;;
43787;Laerm;29409;49.306;8.500;2022-07-09T01:18:48;40.39;36.69;43.86;;
43787;Laerm;29409;49.306;8.500;2022-07-09T01:20:27;40.66;37.12;45.04;;
43787;Laerm;29409;49.306;8.500;2022-07-09T01:22:06;39.90;36.45;42.22;;
43787;Laerm;29409;49.306;8.500;2022-07-09T01:23:44;40.38;35.04;42.98;;
43787;Laerm;29409;49.306;8.500;2022-07-09T01:25:36;40.01;35.36;42.22;;
43787;Laerm;29409;49.306;8.500;2022-07-09T01:27:14;42.49;37.12;73.42;;
43787;Laerm;29409;49.306;8.500;2022-07-09T01:28:51;40.40;37.52;42.41;;
43787;Laerm;29409;49.306;8.500;2022-07-09T01:30:29;40.63;37.70;42.82;;
43787;Laerm;29409;49.306;8.500;2022-07-09T01:32:07;42.19;38.21;49.06;;
43787;Laerm;29409;49.306;8.500;2022-07-09T01:33:45;40.75;38.05;43.29;;
43787;Laerm;29409;49.306;8.500;2022-07-09T01:35:23;41.09;37.52;43.44;;
43787;Laerm;29409;49.306;8.500;2022-07-09T01:37:01;40.92;37.88;46.05;;
43787;Laerm;29409;49.306;8.500;2022-07-09T01:38:39;41.13;38.37;43.49;;
43787;Laerm;29409;49.306;8.500;2022-07-09T01:40:17;42.09;37.88;55.16;;
43787;Laerm;29409;49.306;8.500;2022-07-09T01:41:55;41.24;37.70;58.34;;
43787;Laerm;29409;49.306;8.500;2022-07-09T01:43:33;40.81;38.21;49.87;;
43787;Laerm;29409;49.306;8.500;2022-07-09T01:45:11;40.65;37.70;46.15;;
43787;Laerm;29409;49.306;8.500;2022-07-09T01:46:50;40.34;35.94;43.63;;
43787;Laerm;29409;49.306;8.500;2022-07-09T01:48:28;40.99;37.32;43.39;;
43787;Laerm;29409;49.306;8.500;2022-07-09T01:50:07;41.69;38.52;43.90;;
43787;Laerm;29409;49.306;8.500;2022-07-09T01:51:45;41.10;37.88;45.42;;
43787;Laerm;29409;49.306;8.500;2022-07-09T01:53:23;41.34;37.12;43.54;;
43787;Laerm;29409;49.306;8.500;2022-07-09T01:55:02;41.38;38.05;45.51;;
43787;Laerm;29409;49.306;8.500;2022-07-09T01:56:40;40.55;37.35;42.98;;
43787;Laerm;29409;49.306;8.500;2022-07-09T01:58:18;41.27;38.37;44.43;;
43787;Laerm;29409;49.306;8.500;2022-07-09T01:59:56;41.09;38.37;43.04;;
43787;Laerm;29409;49.306;8.500;2022-07-09T02:01:37;40.84;38.37;42.98;;
43787;Laerm;29409;49.306;8.500;2022-07-09T02:03:20;40.31;37.32;42.82;;
43787;Laerm;29409;49.306;8.500;2022-07-09T02:05:06;40.33;37.12;50.83;;
43787;Laerm;29409;49.306;8.500;2022-07-09T02:06:44;40.61;36.91;44.65;;
43787;Laerm;29409;49.306;8.500;2022-07-09T02:08:22;40.08;36.69;43.39;;
43787;Laerm;29409;49.306;8.500;2022-07-09T02:10:00;40.07;35.36;44.39;;
43787;Laerm;29409;49.306;8.500;2022-07-09T02:11:38;41.65;36.91;48.84;;
43787;Laerm;29409;49.306;8.500;2022-07-09T02:13:16;40.03;37.32;42.53;;
43787;Laerm;29409;49.306;8.500;2022-07-09T02:14:55;40.12;37.12;42.47;;
43787;Laerm;29409;49.306;8.500;2022-07-09T02:16:33;40.11;36.69;42.65;;
43787;Laerm;29409;49.306;8.500;2022-07-09T02:18:11;40.55;36.45;42.35;;
43787;Laerm;29409;49.306;8.500;2022-07-09T02:19:50;41.28;38.95;43.94;;
43787;Laerm;29409;49.306;8.500;2022-07-09T02:21:27;40.33;36.45;42.59;;
43787;Laerm;29409;49.306;8.500;2022-07-09T02:23:05;40.51;37.12;48.76;;
43787;Laerm;29409;49.306;8.500;2022-07-09T02:24:45;40.78;37.52;46.43;;
43787;Laerm;29409;49.306;8.500;2022-07-09T02:26:23;41.66;38.37;49.16;;
43787;Laerm;29409;49.306;8.500;2022-07-09T02:28:02;40.96;38.21;43.19;;
43787;Laerm;29409;49.306;8.500;2022-07-09T02:29:40;40.95;38.05;43.63;;
43787;Laerm;29409;49.306;8.500;2022-07-09T02:31:18;41.41;37.70;44.80;;
43787;Laerm;29409;49.306;8.500;2022-07-09T02:32:55;40.90;38.05;44.03;;
43787;Laerm;29409;49.306;8.500;2022-07-09T02:34:34;40.71;37.52;43.34;;
43787;Laerm;29409;49.306;8.500;2022-07-09T02:36:11;40.24;36.45;42.47;;
43787;Laerm;29409;49.306;8.500;2022-07-09T02:37:49;40.57;37.32;43.19;;
43787;Laerm;29409;49.306;8.500;2022-07-09T02:39:27;40.88;37.70;43.44;;
43787;Laerm;29409;49.306;8.500;2022-07-09T02:41:04;40.70;37.32;43.49;;
43787;Laerm;29409;49.306;8.500;2022-07-09T02:42:42;40.91;38.05;43.34;;
43787;Laerm;29409;49.306;8.500;2022-07-09T02:44:20;41.14;38.21;45.23;;
43787;Laerm;29409;49.306;8.500;2022-07-09T02:45:58;40.15;37.52;42.59;;
43787;Laerm;29409;49.306;8.500;2022-07-09T02:47:37;40.75;37.70;42.88;;
43787;Laerm;29409;49.306;8.500;2022-07-09T02:49:14;41.00;37.70;42.82;;
43787;Laerm;29409;49.306;8.500;2022-07-09T02:50:53;40.72;37.88;43.44;;
43787;Laerm;29409;49.306;8.500;2022-07-09T02:52:32;40.46;37.32;43.39;;
43787;Laerm;29409;49.306;8.500;2022-07-09T02:54:10;40.69;37.70;43.04;;
43787;Laerm;29409;49.306;8.500;2022-07-09T02:55:48;41.11;38.37;43.58;;
43787;Laerm;29409;49.306;8.500;2022-07-09T02:57:26;42.66;38.21;55.09;;
43787;Laerm;29409;49.306;8.500;2022-07-09T02:59:04;41.15;37.52;53.97;;
43787;Laerm;29409;49.306;8.500;2022-07-09T03:00:42;41.08;38.21;43.34;;
43787;Laerm;29409;49.306;8.500;2022-07-09T03:02:20;41.63;39.21;44.27;;
43787;Laerm;29409;49.306;8.500;2022-07-09T03:03:58;41.05;36.91;43.29;;
43787;Laerm;29409;49.306;8.500;2022-07-09T03:05:36;40.65;37.88;42.53;;
43787;Laerm;29409;49.306;8.500;2022-07-09T03:07:14;41.06;37.88;46.62;;
43787;Laerm;29409;49.306;8.500;2022-07-09T03:08:52;41.02;37.88;44.15;;
43787;Laerm;29409;49.306;8.500;2022-07-09T03:10:31;40.79;38.18;44.07;;
43787;Laerm;29409;49.306;8.500;2022-07-09T03:12:09;40.20;37.32;42.47;;
43787;Laerm;29409;49.306;8.500;2022-07-09T03:13:46;40.73;37.52;42.93;;
43787;Laerm;29409;49.306;8.500;2022-07-09T03:15:24;41.25;37.88;45.54;;
43787;Laerm;29409;49.306;8.500;2022-07-09T03:17:02;42.03;38.81;45.60;;
43787;Laerm;29409;49.306;8.500;2022-07-09T03:18:41;41.84;38.81;45.14;;
43787;Laerm;29409;49.306;8.500;2022-07-09T03:20:19;41.10;38.21;43.99;;
43787;Laerm;29409;49.306;8.500;2022-07-09T03:21:57;41.29;37.70;45.27;;
43787;Laerm;29409;49.306;8.500;2022-07-09T03:23:35;41.51;38.21;44.43;;
43787;Laerm;29409;49.306;8.500;2022-07-09T03:25:13;41.29;38.05;45.51;;
43787;Laerm;29409;49.306;8.500;2022-07-09T03:26:51;41.38;38.05;45.57;;
43787;Laerm;29409;49.306;8.500;2022-07-09T03:28:29;42.55;38.95;51.63;;
43787;Laerm;29409;49.306;8.500;2022-07-09T03:30:07;42.01;38.21;51.32;;
43787;Laerm;29409;49.306;8.500;2022-07-09T03:31:45;41.26;36.45;51.50;;
43787;Laerm;29409;49.306;8.500;2022-07-09T03:33:24;40.89;37.35;45.07;;
43787;Laerm;29409;49.306;8.500;2022-07-09T03:35:01;41.00;37.35;47.59;;
43787;Laerm;29409;49.306;8.500;2022-07-09T03:36:40;42.33;38.21;55.34;;
43787;Laerm;29409;49.306;8.500;2022-07-09T03:38:18;42.72;37.32;55.98;;
43787;Laerm;29409;49.306;8.500;2022-07-09T03:39:56;43.53;39.08;53.77;;
43787;Laerm;29409;49.306;8.500;2022-07-09T03:41:34;43.65;38.21;56.98;;
43787;Laerm;29409;49.306;8.500;2022-07-09T03:43:12;43.91;39.34;57.09;;
43787;Laerm;29409;49.306;8.500;2022-07-09T03:44:50;42.76;39.08;55.55;;
43787;Laerm;29409;49.306;8.500;2022-07-09T03:46:28;42.84;38.95;55.61;;
43787;Laerm;29409;49.306;8.500;2022-07-09T03:48:07;42.60;39.34;48.74;;
43787;Laerm;29409;49.306;8.500;2022-07-09T03:49:44;42.01;38.67;51.85;;
43787;Laerm;29409;49.306;8.500;2022-07-09T03:51:22;41.94;39.34;45.99;;
43787;Laerm;29409;49.306;8.500;2022-07-09T03:53:01;42.63;39.81;49.96;;
43787;Laerm;29409;49.306;8.500;2022-07-09T03:54:38;42.19;38.81;51.61;;
43787;Laerm;29409;49.306;8.500;2022-07-09T03:56:16;41.75;37.88;55.43;;
43787;Laerm;29409;49.306;8.500;2022-07-09T03:57:54;43.13;37.70;57.00;;
43787;Laerm;29409;49.306;8.500;2022-07-09T03:59:32;44.09;39.21;56.30;;
43787;Laerm;29409;49.306;8.500;2022-07-09T04:01:10;44.31;39.92;56.72;;
43787;Laerm;29409;49.306;8.500;2022-07-09T04:02:48;43.68;40.89;54.66;;
43787;Laerm;29409;49.306;8.500;2022-07-09T04:04:26;45.87;41.30;61.17;;
43787;Laerm;29409;49.306;8.500;2022-07-09T04:06:04;44.19;42.35;47.77;;
43787;Laerm;29409;49.306;8.500;2022-07-09T04:07:42;43.72;41.46;53.55;;
43787;Laerm;29409;49.306;8.500;2022-07-09T04:09:21;44.64;42.09;54.61;;
43787;Laerm;29409;49.306;8.500;2022-07-09T04:10:59;45.05;41.75;57.81;;
43787;Laerm;29409;49.306;8.500;2022-07-09T04:12:37;43.70;41.38;49.08;;
43787;Laerm;29409;49.306;8.500;2022-07-09T04:14:15;43.80;41.61;47.54;;
43787;Laerm;29409;49.306;8.500;2022-07-09T04:15:53;43.40;41.22;46.05;;
43787;Laerm;29409;49.306;8.500;2022-07-09T04:17:31;43.22;41.11;48.29;;
43787;Laerm;29409;49.306;8.500;2022-07-09T04:19:08;43.74;41.53;51.22;;
43787;Laerm;29409;49.306;8.500;2022-07-09T04:20:47;43.77;41.14;54.93;;
43787;Laerm;29409;49.306;8.500;2022-07-09T04:22:24;44.58;41.96;55.34;;
43787;Laerm;29409;49.306;8.500;2022-07-09T04:24:03;43.58;41.06;50.00;;
43787;Laerm;29409;49.306;8.500;2022-07-09T04:25:42;43.75;41.30;53.79;;
43787;Laerm;29409;49.306;8.500;2022-07-09T04:27:23;45.95;41.30;57.07;;
43787;Laerm;29409;49.306;8.500;2022-07-09T04:29:01;44.67;41.22;53.74;;
43787;Laerm;29409;49.306;8.500;2022-07-09T04:30:39;44.57;41.41;52.43;;
43787;Laerm;29409;49.306;8.500;2022-07-09T04:32:18;43.20;41.06;48.67;;
43787;Laerm;29409;49.306;8.500;2022-07-09T04:33:56;42.61;40.43;44.47;;
43787;Laerm;29409;49.306;8.500;2022-07-09T04:35:34;42.66;40.53;46.23;;
43787;Laerm;29409;49.306;8.500;2022-07-09T04:37:13;43.27;40.98;44.97;;
43787;Laerm;29409;49.306;8.500;2022-07-09T04:38:51;43.32;41.30;46.71;;
43787;Laerm;29409;49.306;8.500;2022-07-09T04:40:29;44.54;42.16;55.15;;
43787;Laerm;29409;49.306;8.500;2022-07-09T04:42:07;44.56;41.38;53.40;;
43787;Laerm;29409;49.306;8.500;2022-07-09T04:43:46;43.61;40.80;49.83;;
43787;Laerm;29409;49.306;8.500;2022-07-09T04:45:24;43.06;40.53;48.84;;
43787;Laerm;29409;49.306;8.500;2022-07-09T04:47:02;42.95;40.13;52.89;;
43787;Laerm;29409;49.306;8.500;2022-07-09T04:48:40;43.25;40.03;53.02;;
43787;Laerm;29409;49.306;8.500;2022-07-09T04:50:18;43.81;41.06;50.96;;
43787;Laerm;29409;49.306;8.500;2022-07-09T04:51:56;43.92;41.22;53.25;;
43787;Laerm;29409;49.306;8.500;2022-07-09T04:53:34;43.34;41.53;46.96;;
43787;Laerm;29409;49.306;8.500;2022-07-09T04:55:12;44.07;40.96;49.43;;
43787;Laerm;29409;49.306;8.500;2022-07-09T04:56:51;44.39;41.53;55.18;;
43787;Laerm;29409;49.306;8.500;2022-07-09T04:58:29;47.29;41.61;67.08;;
43787;Laerm;29409;49.306;8.500;2022-07-09T05:00:08;48.22;41.96;69.78;;
43787;Laerm;29409;49.306;8.500;2022-07-09T05:01:46;46.27;41.61;69.74;;
43787;Laerm;29409;49.306;8.500;2022-07-09T05:03:24;43.92;41.53;50.34;;
43787;Laerm;29409;49.306;8.500;2022-07-09T05:05:02;43.87;41.53;50.81;;
43787;Laerm;29409;49.306;8.500;2022-07-09T05:06:41;43.24;40.89;50.70;;
43787;Laerm;29409;49.306;8.500;2022-07-09T05:08:19;44.14;40.03;54.19;;
43787;Laerm;29409;49.306;8.500;2022-07-09T05:09:57;45.21;41.06;58.36;;
43787;Laerm;29409;49.306;8.500;2022-07-09T05:11:35;42.77;40.33;51.61;;
43787;Laerm;29409;49.306;8.500;2022-07-09T05:13:13;43.26;40.43;61.18;;
43787;Laerm;29409;49.306;8.500;2022-07-09T05:14:50;44.59;41.38;65.77;;
43787;Laerm;29409;49.306;8.500;2022-07-09T05:16:28;46.12;41.82;66.06;;
43787;Laerm;29409;49.306;8.500;2022-07-09T05:18:06;43.07;40.43;49.69;;
43787;Laerm;29409;49.306;8.500;2022-07-09T05:19:44;43.23;41.14;46.48;;
43787;Laerm;29409;49.306;8.500;2022-07-09T05:21:22;44.01;40.71;53.93;;
43787;Laerm;29409;49.306;8.500;2022-07-09T05:23:00;42.59;40.23;46.15;;
43787;Laerm;29409;49.306;8.500;2022-07-09T05:24:38;42.66;39.70;49.04;;
43787;Laerm;29409;49.306;8.500;2022-07-09T05:26:16;43.64;40.43;54.23;;
43787;Laerm;29409;49.306;8.500;2022-07-09T05:27:54;43.90;40.45;55.81;;
43787;Laerm;29409;49.306;8.500;2022-07-09T05:29:32;43.44;40.23;56.45;;
43787;Laerm;29409;49.306;8.500;2022-07-09T05:31:09;42.96;40.23;51.53;;
43787;Laerm;29409;49.306;8.500;2022-07-09T05:32:47;42.64;39.58;48.63;;
43787;Laerm;29409;49.306;8.500;2022-07-09T05:34:25;42.87;40.33;51.72;;
43787;Laerm;29409;49.306;8.500;2022-07-09T05:36:04;45.32;40.23;57.19;;
43787;Laerm;29409;49.306;8.500;2022-07-09T05:37:42;44.94;40.23;54.45;;
43787;Laerm;29409;49.306;8.500;2022-07-09T05:39:20;43.60;40.13;52.58;;
43787;Laerm;29409;49.306;8.500;2022-07-09T05:40:58;42.11;38.81;46.23;;
43787;Laerm;29409;49.306;8.500;2022-07-09T05:42:36;42.74;38.67;56.01;;
43787;Laerm;29409;49.306;8.500;2022-07-09T05:44:14;42.81;38.95;55.12;;
43787;Laerm;29409;49.306;8.500;2022-07-09T05:45:52;43.94;38.21;63.41;;
43787;Laerm;29409;49.306;8.500;2022-07-09T05:47:30;43.45;38.52;51.54;;
43787;Laerm;29409;49.306;8.500;2022-07-09T05:49:08;41.86;39.08;46.66;;
43787;Laerm;29409;49.306;8.500;2022-07-09T05:50:46;42.28;38.67;47.26;;
43787;Laerm;29409;49.306;8.500;2022-07-09T05:52:24;42.74;39.46;51.43;;
43787;Laerm;29409;49.306;8.500;2022-07-09T05:54:01;42.71;39.21;55.83;;
43787;Laerm;29409;49.306;8.500;2022-07-09T05:55:39;43.91;39.34;56.49;;
43787;Laerm;29409;49.306;8.500;2022-07-09T05:57:17;42.47;39.81;50.78;;
43787;Laerm;29409;49.306;8.500;2022-07-09T05:58:55;43.38;39.92;56.05;;
43787;Laerm;29409;49.306;8.500;2022-07-09T06:00:34;43.99;40.03;55.91;;
43787;Laerm;29409;49.306;8.500;2022-07-09T06:02:11;44.03;39.58;63.53;;
43787;Laerm;29409;49.306;8.500;2022-07-09T06:03:49;42.29;38.52;48.45;;
43787;Laerm;29409;49.306;8.500;2022-07-09T06:05:27;45.36;37.88;59.65;;
43787;Laerm;29409;49.306;8.500;2022-07-09T06:07:05;43.79;38.37;56.14;;
43787;Laerm;29409;49.306;8.500;2022-07-09T06:08:43;43.95;37.70;66.32;;
43787;Laerm;29409;49.306;8.500;2022-07-09T06:10:21;45.16;37.88;65.96;;
43787;Laerm;29409;49.306;8.500;2022-07-09T06:11:59;49.62;39.21;74.11;;
43787;Laerm;29409;49.306;8.500;2022-07-09T06:13:36;46.54;37.32;58.54;;
43787;Laerm;29409;49.306;8.500;2022-07-09T06:15:14;46.74;37.70;58.21;;
43787;Laerm;29409;49.306;8.500;2022-07-09T06:16:52;41.16;37.88;45.36;;
43787;Laerm;29409;49.306;8.500;2022-07-09T06:18:32;41.56;38.52;54.90;;
43787;Laerm;29409;49.306;8.500;2022-07-09T06:20:10;41.70;37.12;54.94;;
43787;Laerm;29409;49.306;8.500;2022-07-09T06:21:47;42.49;38.02;56.01;;
43787;Laerm;29409;49.306;8.500;2022-07-09T06:23:25;41.61;37.70;51.31;;
43787;Laerm;29409;49.306;8.500;2022-07-09T06:25:05;47.98;38.67;62.15;;
43787;Laerm;29409;49.306;8.500;2022-07-09T06:26:43;51.27;38.05;65.38;;
43787;Laerm;29409;49.306;8.500;2022-07-09T06:28:24;47.91;37.32;60.35;;
43787;Laerm;29409;49.306;8.500;2022-07-09T06:30:02;47.52;38.05;61.92;;
43787;Laerm;29409;49.306;8.500;2022-07-09T06:31:40;40.38;36.69;45.11;;
43787;Laerm;29409;49.306;8.500;2022-07-09T06:33:18;44.64;36.45;60.25;;
43787;Laerm;29409;49.306;8.500;2022-07-09T06:34:56;40.97;35.94;48.87;;
43787;Laerm;29409;49.306;8.500;2022-07-09T06:36:34;41.24;36.91;51.07;;
43787;Laerm;29409;49.306;8.500;2022-07-09T06:38:12;43.16;36.20;55.95;;
43787;Laerm;29409;49.306;8.500;2022-07-09T06:39:51;44.52;37.12;56.46;;
43787;Laerm;29409;49.306;8.500;2022-07-09T06:41:33;42.19;38.60;47.98;;
43787;Laerm;29409;49.306;8.500;2022-07-09T06:43:11;41.12;36.91;45.48;;
43787;Laerm;29409;49.306;8.500;2022-07-09T06:44:50;42.50;36.69;49.25;;
43787;Laerm;29409;49.306;8.500;2022-07-09T06:46:28;40.66;35.36;54.63;;
43787;Laerm;29409;49.306;8.500;2022-07-09T06:48:06;42.63;34.69;58.61;;
43787;Laerm;29409;49.306;8.500;2022-07-09T06:49:44;46.22;35.94;60.07;;
43787;Laerm;29409;49.306;8.500;2022-07-09T06:51:22;47.60;38.21;59.20;;
43787;Laerm;29409;49.306;8.500;2022-07-09T06:52:59;46.94;37.52;58.67;;
43787;Laerm;29409;49.306;8.500;2022-07-09T06:54:37;43.44;36.91;58.28;;
43787;Laerm;29409;49.306;8.500;2022-07-09T06:56:15;41.35;35.36;50.99;;
43787;Laerm;29409;49.306;8.500;2022-07-09T06:57:53;44.23;35.66;61.09;;
43787;Laerm;29409;49.306;8.500;2022-07-09T06:59:31;41.55;35.66;56.92;;
43787;Laerm;29409;49.306;8.500;2022-07-09T07:01:10;42.07;35.31;54.23;;
43787;Laerm;29409;49.306;8.500;2022-07-09T07:02:50;42.49;35.94;66.95;;
43787;Laerm;29409;49.306;8.500;2022-07-09T07:04:28;44.05;37.32;53.44;;
43787;Laerm;29409;49.306;8.500;2022-07-09T07:06:06;44.97;38.95;67.27;;
43787;Laerm;29409;49.306;8.500;2022-07-09T07:07:44;43.47;35.66;74.96;;
43787;Laerm;29409;49.306;8.500;2022-07-09T07:09:23;43.68;35.59;58.06;;
43787;Laerm;29409;49.306;8.500;2022-07-09T07:11:02;42.53;35.36;55.01;;
43787;Laerm;29409;49.306;8.500;2022-07-09T07:12:40;43.26;34.31;72.95;;
43787;Laerm;29409;49.306;8.500;2022-07-09T07:14:18;42.30;34.31;73.39;;
43787;Laerm;29409;49.306;8.500;2022-07-09T07:15:56;45.57;34.31;60.60;;
43787;Laerm;29409;49.306;8.500;2022-07-09T07:17:34;40.21;35.04;45.48;;
43787;Laerm;29409;49.306;8.500;2022-07-09T07:19:12;44.16;35.94;60.04;;
43787;Laerm;29409;49.306;8.500;2022-07-09T07:20:49;46.19;39.70;76.69;;
43787;Laerm;29409;49.306;8.500;2022-07-09T07:22:30;44.35;36.45;67.37;;
43787;Laerm;29409;49.306;8.500;2022-07-09T07:24:08;44.94;35.36;74.80;;
43787;Laerm;29409;49.306;8.500;2022-07-09T07:25:46;45.60;35.66;70.05;;
43787;Laerm;29409;49.306;8.500;2022-07-09T07:27:25;44.67;36.45;69.39;;
43787;Laerm;29409;49.306;8.500;2022-07-09T07:29:03;43.10;36.45;53.05;;
43787;Laerm;29409;49.306;8.500;2022-07-09T07:30:41;40.94;36.20;51.61;;
43787;Laerm;29409;49.306;8.500;2022-07-09T07:32:19;40.05;33.44;59.37;;
43787;Laerm;29409;49.306;8.500;2022-07-09T07:33:57;42.99;36.69;53.44;;
43787;Laerm;29409;49.306;8.500;2022-07-09T07:35:37;42.94;36.45;59.81;;
43787;Laerm;29409;49.306;8.500;2022-07-09T07:37:15;44.85;38.05;57.19;;
43787;Laerm;29409;49.306;8.500;2022-07-09T07:38:54;45.90;36.69;76.19;;
43787;Laerm;29409;49.306;8.500;2022-07-09T07:40:32;42.37;37.52;51.08;;
43787;Laerm;29409;49.306;8.500;2022-07-09T07:42:10;42.51;36.45;51.29;;
43787;Laerm;29409;49.306;8.500;2022-07-09T07:43:48;40.74;35.04;53.93;;
43787;Laerm;29409;49.306;8.500;2022-07-09T07:45:25;41.93;36.91;49.93;;
43787;Laerm;29409;49.306;8.500;2022-07-09T07:47:03;41.19;35.04;58.02;;
43787;Laerm;29409;49.306;8.500;2022-07-09T07:48:41;51.37;41.53;62.48;;
43787;Laerm;29409;49.306;8.500;2022-07-09T07:50:20;46.63;35.94;61.68;;
43787;Laerm;29409;49.306;8.500;2022-07-09T07:52:00;40.59;35.04;46.45;;
43787;Laerm;29409;49.306;8.500;2022-07-09T07:53:38;44.04;36.45;58.53;;
43787;Laerm;29409;49.306;8.500;2022-07-09T07:55:15;44.61;35.66;62.65;;
43787;Laerm;29409;49.306;8.500;2022-07-09T07:56:54;45.04;36.45;58.75;;
43787;Laerm;29409;49.306;8.500;2022-07-09T07:58:32;45.63;36.91;60.88;;
43787;Laerm;29409;49.306;8.500;2022-07-09T08:00:10;44.49;37.52;67.89;;
43787;Laerm;29409;49.306;8.500;2022-07-09T08:01:48;44.94;33.90;54.79;;
43787;Laerm;29409;49.306;8.500;2022-07-09T08:03:26;44.12;36.56;54.12;;
43787;Laerm;29409;49.306;8.500;2022-07-09T08:05:05;50.13;37.32;63.11;;
43787;Laerm;29409;49.306;8.500;2022-07-09T08:06:44;48.90;38.37;59.92;;
43787;Laerm;29409;49.306;8.500;2022-07-09T08:08:23;46.30;39.70;58.37;;
43787;Laerm;29409;49.306;8.500;2022-07-09T08:10:01;45.52;37.32;58.26;;
43787;Laerm;29409;49.306;8.500;2022-07-09T08:11:39;42.24;37.12;49.44;;
43787;Laerm;29409;49.306;8.500;2022-07-09T08:13:18;45.77;37.52;60.58;;
43787;Laerm;29409;49.306;8.500;2022-07-09T08:14:56;40.77;35.66;52.33;;
43787;Laerm;29409;49.306;8.500;2022-07-09T08:16:34;46.50;38.52;62.60;;
43787;Laerm;29409;49.306;8.500;2022-07-09T08:18:12;45.28;37.88;58.54;;
43787;Laerm;29409;49.306;8.500;2022-07-09T08:19:51;45.51;38.52;57.64;;
43787;Laerm;29409;49.306;8.500;2022-07-09T08:21:29;47.48;39.08;59.90;;
43787;Laerm;29409;49.306;8.500;2022-07-09T08:23:07;47.18;40.43;56.89;;
43787;Laerm;29409;49.306;8.500;2022-07-09T08:24:45;45.69;39.34;57.84;;
43787;Laerm;29409;49.306;8.500;2022-07-09T08:26:26;42.03;37.53;51.20;;
43787;Laerm;29409;49.306;8.500;2022-07-09T08:28:04;45.75;35.94;58.93;;
43787;Laerm;29409;49.306;8.500;2022-07-09T08:29:42;44.49;38.37;61.59;;
43787;Laerm;29409;49.306;8.500;2022-07-09T08:31:22;44.80;39.58;62.66;;
43787;Laerm;29409;49.306;8.500;2022-07-09T08:33:00;44.11;37.12;58.15;;
43787;Laerm;29409;49.306;8.500;2022-07-09T08:34:38;42.45;37.12;51.22;;
43787;Laerm;29409;49.306;8.500;2022-07-09T08:36:16;46.02;39.11;54.93;;
43787;Laerm;29409;49.306;8.500;2022-07-09T08:37:54;45.39;39.70;57.93;;
43787;Laerm;29409;49.306;8.500;2022-07-09T08:39:32;45.47;39.46;63.67;;
43787;Laerm;29409;49.306;8.500;2022-07-09T08:41:10;43.67;38.37;51.74;;
43787;Laerm;29409;49.306;8.500;2022-07-09T08:42:50;42.61;38.81;48.40;;
43787;Laerm;29409;49.306;8.500;2022-07-09T08:44:30;48.58;39.70;61.87;;
43787;Laerm;29409;49.306;8.500;2022-07-09T08:46:13;43.29;38.81;55.37;;
43787;Laerm;29409;49.306;8.500;2022-07-09T08:47:51;45.69;40.03;59.35;;
43787;Laerm;29409;49.306;8.500;2022-07-09T08:49:31;42.67;37.87;55.44;;
43787;Laerm;29409;49.306;8.500;2022-07-09T08:51:09;40.33;35.66;51.80;;
43787;Laerm;29409;49.306;8.500;2022-07-09T08:52:47;42.56;37.12;55.84;;
43787;Laerm;29409;49.306;8.500;2022-07-09T08:54:26;41.20;36.69;45.17;;
43787;Laerm;29409;49.306;8.500;2022-07-09T08:56:05;45.87;37.88;58.28;;
43787;Laerm;29409;49.306;8.500;2022-07-09T08:57:43;43.69;37.32;67.22;;
43787;Laerm;29409;49.306;8.500;2022-07-09T08:59:21;41.48;36.45;60.47;;
43787;Laerm;29409;49.306;8.500;2022-07-09T09:01:00;42.48;35.36;50.36;;
43787;Laerm;29409;49.306;8.500;2022-07-09T09:02:38;40.44;35.59;47.79;;
43787;Laerm;29409;49.306;8.500;2022-07-09T09:04:16;43.97;36.45;58.62;;
43787;Laerm;29409;49.306;8.500;2022-07-09T09:06:02;42.73;35.66;52.91;;
43787;Laerm;29409;49.306;8.500;2022-07-09T09:07:41;41.58;36.69;51.19;;
43787;Laerm;29409;49.306;8.500;2022-07-09T09:09:19;42.07;37.12;52.77;;